Time;durP1;ratioP1;P1;durP2;ratioP2;P2;SDS_P1;SDS_P2;PMS_P1;PMS_P2;Temp;Humidity;BMP_temperature;BMP_pressure;BME280_temperature;BME280_humidity;BME280_pressure;Samples;Min_cycle;Max_cycle;Signal;HPM_P1;HPM_P2
2022/09/27 00:00:40;;;;;;;1999.90;999.90;;;12.20;99.90;;;;;;5090429;28;20484;-75
2022/09/27 00:03:07;;;;;;;1999.90;999.90;;;12.20;99.90;;;;;;5084806;28;20522;-72
2022/09/27 00:05:34;;;;;;;1999.90;999.90;;;12.20;99.90;;;;;;5091043;28;20502;-72
2022/09/27 00:08:01;;;;;;;1999.90;999.90;;;12.20;99.90;;;;;;5093251;28;20530;-75
2022/09/27 00:10:29;;;;;;;1999.90;999.90;;;12.00;99.90;;;;;;5086263;28;20986;-74
2022/09/27 00:12:57;;;;;;;1999.90;999.90;;;12.00;99.90;;;;;;5090834;28;20479;-71
2022/09/27 00:15:24;;;;;;;1999.90;999.90;;;12.00;99.90;;;;;;5090602;28;20667;-74
2022/09/27 00:17:51;;;;;;;1999.90;999.90;;;11.80;99.90;;;;;;5091981;28;20460;-74
2022/09/27 00:20:20;;;;;;;1999.90;999.90;;;11.90;99.90;;;;;;5081372;28;20485;-72
2022/09/27 00:22:47;;;;;;;1999.90;999.90;;;11.90;99.90;;;;;;5092228;28;20551;-73
2022/09/27 00:25:14;;;;;;;1999.90;999.90;;;11.80;99.90;;;;;;5090530;28;20492;-73
2022/09/27 00:27:42;;;;;;;1999.90;999.90;;;11.80;99.90;;;;;;5088475;28;20452;-72
2022/09/27 00:30:11;;;;;;;1999.90;999.90;;;11.70;99.90;;;;;;5086892;28;20941;-71
2022/09/27 00:32:37;;;;;;;1999.90;999.90;;;11.80;99.90;;;;;;5092451;28;22155;-74
2022/09/27 00:35:05;;;;;;;1999.90;999.90;;;11.70;99.90;;;;;;5092344;28;20537;-71
2022/09/27 00:37:32;;;;;;;1999.90;999.90;;;11.70;99.90;;;;;;5092932;28;20448;-73
2022/09/27 00:39:58;;;;;;;1999.90;999.90;;;11.70;99.90;;;;;;5094063;28;20476;-73
2022/09/27 00:42:25;;;;;;;1999.90;999.90;;;11.70;99.90;;;;;;5092326;28;20473;-73
2022/09/27 00:45:07;;;;;;;1999.90;999.90;;;11.80;99.90;;;;;;5091409;28;20607;-73
2022/09/27 00:47:40;;;;;;;1999.90;999.90;;;11.80;99.90;;;;;;5092539;28;21035;-74
2022/09/27 00:50:15;;;;;;;1999.90;999.90;;;11.80;99.90;;;;;;5086369;28;20457;-75
2022/09/27 00:52:47;;;;;;;1999.90;999.90;;;11.80;99.90;;;;;;5086406;28;20444;-73
2022/09/27 00:55:20;;;;;;;1999.90;999.90;;;11.80;99.90;;;;;;5088637;28;20468;-74
2022/09/27 00:57:48;;;;;;;1999.90;999.90;;;11.70;99.90;;;;;;5086471;28;20503;-75
2022/09/27 01:00:16;;;;;;;1999.90;999.90;;;11.80;99.90;;;;;;5087748;28;21050;-75
2022/09/27 01:02:47;;;;;;;1999.90;999.90;;;12.00;99.90;;;;;;5090972;28;20502;-75
2022/09/27 01:05:16;;;;;;;1999.90;999.90;;;12.00;99.90;;;;;;5089714;28;20483;-73
2022/09/27 01:07:42;;;;;;;1999.90;999.90;;;11.90;99.90;;;;;;5091507;28;20925;-75
2022/09/27 01:10:10;;;;;;;1999.90;999.90;;;11.90;99.90;;;;;;5091356;28;20479;-73
2022/09/27 01:12:47;;;;;;;1999.90;999.90;;;11.80;99.90;;;;;;5091559;28;20449;-73
2022/09/27 01:15:22;;;;;;;1999.90;999.90;;;11.80;99.90;;;;;;5090209;28;21189;-72
2022/09/27 01:17:59;;;;;;;1999.90;999.90;;;11.80;99.90;;;;;;5088108;28;20533;-73
2022/09/27 01:20:55;;;;;;;1999.90;999.90;;;11.80;99.90;;;;;;5089964;28;20980;-73
2022/09/27 01:23:42;;;;;;;1999.90;999.90;;;11.80;99.90;;;;;;5074425;28;20452;-71
2022/09/27 01:26:15;;;;;;;1999.90;999.90;;;11.70;99.90;;;;;;5090367;28;20515;-71
2022/09/27 01:29:00;;;;;;;1999.90;999.90;;;11.70;99.90;;;;;;5091170;28;20461;-73
2022/09/27 01:31:35;;;;;;;1999.90;999.90;;;11.70;99.90;;;;;;5083672;28;20453;-76
2022/09/27 01:34:07;;;;;;;1999.90;999.90;;;11.70;99.90;;;;;;5085990;28;20464;-75
2022/09/27 01:36:43;;;;;;;1999.90;999.90;;;11.70;99.90;;;;;;5088474;28;20464;-73
2022/09/27 01:39:23;;;;;;;1999.90;999.90;;;11.80;99.90;;;;;;5086510;28;20526;-74
2022/09/27 01:42:00;;;;;;;1999.90;999.90;;;11.80;99.90;;;;;;5087632;28;20485;-74
2022/09/27 01:44:32;;;;;;;1999.90;999.90;;;11.90;99.90;;;;;;5083385;28;20505;-74
2022/09/27 01:47:04;;;;;;;1999.90;999.90;;;12.00;99.90;;;;;;5089536;28;20507;-74
2022/09/27 01:49:39;;;;;;;1999.90;999.90;;;11.90;99.90;;;;;;5084505;28;21012;-76
2022/09/27 01:52:09;;;;;;;1999.90;999.90;;;12.00;99.90;;;;;;5089945;28;20961;-75
2022/09/27 01:54:40;;;;;;;1999.90;999.90;;;12.20;99.90;;;;;;5082708;28;20475;-76
2022/09/27 01:57:09;;;;;;;1999.90;999.90;;;12.00;99.90;;;;;;5087325;28;20456;-76
2022/09/27 01:59:42;;;;;;;1999.90;999.90;;;11.90;99.90;;;;;;5089728;28;20453;-76
2022/09/27 02:02:12;;;;;;;1999.90;999.90;;;11.80;99.90;;;;;;5085566;28;20489;-72
2022/09/27 02:04:42;;;;;;;1999.90;999.90;;;12.00;99.90;;;;;;5089253;28;20902;-71
2022/09/27 02:07:15;;;;;;;1999.90;999.90;;;12.00;99.90;;;;;;5089856;28;20509;-73
2022/09/27 02:09:48;;;;;;;1999.90;999.90;;;12.00;99.90;;;;;;5089014;28;20877;-74
2022/09/27 02:12:20;;;;;;;1999.90;999.90;;;12.00;99.90;;;;;;5089614;28;20517;-72
2022/09/27 02:14:51;;;;;;;1999.90;999.90;;;12.00;99.90;;;;;;5091348;28;20521;-71
2022/09/27 02:17:25;;;;;;;1999.90;999.90;;;12.00;99.90;;;;;;5093321;28;20456;-71
2022/09/27 02:19:57;;;;;;;1999.90;999.90;;;12.00;99.90;;;;;;5093740;28;20456;-73
2022/09/27 02:22:32;;;;;;;1999.90;999.90;;;12.00;99.90;;;;;;5089213;28;20484;-73
2022/09/27 02:25:07;;;;;;;1999.90;999.90;;;12.20;99.90;;;;;;5089838;28;20498;-76
2022/09/27 02:27:37;;;;;;;1999.90;999.90;;;12.10;99.90;;;;;;5091703;28;20464;-74
2022/09/27 02:30:08;;;;;;;1999.90;999.90;;;12.10;99.90;;;;;;5093090;28;20451;-73
2022/09/27 02:32:36;;;;;;;1999.90;999.90;;;12.00;99.90;;;;;;5088898;28;20816;-74
2022/09/27 02:35:08;;;;;;;1999.90;999.90;;;12.10;99.90;;;;;;5091612;28;20529;-73
2022/09/27 02:37:35;;;;;;;1999.90;999.90;;;12.00;99.90;;;;;;5091909;28;20460;-73
2022/09/27 02:40:03;;;;;;;1999.90;999.90;;;12.00;99.90;;;;;;5093702;28;20521;-72
2022/09/27 02:42:30;;;;;;;1999.90;999.90;;;11.90;99.90;;;;;;5092106;28;20480;-73
2022/09/27 02:44:57;;;;;;;1999.90;999.90;;;11.90;99.90;;;;;;5092501;28;20524;-74
2022/09/27 02:47:42;;;;;;;1999.90;999.90;;;12.00;99.90;;;;;;5091979;28;20456;-73
2022/09/27 02:50:27;;;;;;;1999.90;999.90;;;12.00;99.90;;;;;;5090655;28;20447;-76
2022/09/27 02:53:06;;;;;;;1999.90;999.90;;;12.00;99.90;;;;;;5086242;28;20531;-76
2022/09/27 02:55:45;;;;;;;1999.90;999.90;;;11.80;99.90;;;;;;5084593;28;20472;-75
2022/09/27 02:58:22;;;;;;;1999.90;999.90;;;11.60;99.90;;;;;;5093610;28;20447;-74
2022/09/27 03:00:57;;;;;;;1999.90;999.90;;;11.70;99.90;;;;;;5092440;28;20521;-73
2022/09/27 03:03:32;;;;;;;1999.90;999.90;;;11.70;99.90;;;;;;5087389;28;20451;-74
2022/09/27 03:06:04;;;;;;;1999.90;999.90;;;11.70;99.90;;;;;;5092043;28;20533;-74
2022/09/27 03:08:31;;;;;;;1999.90;999.90;;;11.80;99.90;;;;;;5086630;28;20456;-73
2022/09/27 03:10:57;;;;;;;1999.90;999.90;;;11.90;99.90;;;;;;5091646;28;20941;-75
2022/09/27 03:13:24;;;;;;;1999.90;999.90;;;12.00;99.90;;;;;;5087580;28;20478;-73
2022/09/27 03:15:51;;;;;;;1999.90;999.90;;;12.00;99.90;;;;;;5092665;28;20996;-75
2022/09/27 03:18:17;;;;;;;1999.90;999.90;;;12.10;99.90;;;;;;5092225;28;20940;-71
2022/09/27 03:20:45;;;;;;;1999.90;999.90;;;12.00;99.90;;;;;;5091756;28;20480;-74
2022/09/27 03:23:13;;;;;;;1999.90;999.90;;;12.00;99.90;;;;;;5092242;28;20457;-75
2022/09/27 03:25:40;;;;;;;1999.90;999.90;;;12.00;99.90;;;;;;5091160;28;20480;-73
2022/09/27 03:28:08;;;;;;;1999.90;999.90;;;12.00;99.90;;;;;;5093075;28;20543;-75
2022/09/27 03:30:34;;;;;;;1999.90;999.90;;;12.00;99.90;;;;;;5092029;28;20795;-75
2022/09/27 03:33:01;;;;;;;1999.90;999.90;;;12.00;99.90;;;;;;5092146;28;20458;-73
2022/09/27 03:35:28;;;;;;;1999.90;999.90;;;12.00;99.90;;;;;;5091406;28;20476;-73
2022/09/27 03:37:56;;;;;;;1999.90;999.90;;;12.00;99.90;;;;;;5091858;28;20871;-74
2022/09/27 03:40:22;;;;;;;1999.90;999.90;;;12.00;99.90;;;;;;5090846;28;20935;-74
2022/09/27 03:42:49;;;;;;;1999.90;999.90;;;12.00;99.90;;;;;;5090098;28;21019;-75
2022/09/27 03:45:17;;;;;;;1999.90;999.90;;;12.00;99.90;;;;;;5090724;28;20476;-74
2022/09/27 03:47:44;;;;;;;1999.90;999.90;;;11.90;99.90;;;;;;5084141;28;20490;-76
2022/09/27 03:50:12;;;;;;;1999.90;999.90;;;11.90;99.90;;;;;;5087695;28;20510;-71
2022/09/27 03:52:38;;;;;;;1999.90;999.90;;;11.90;99.90;;;;;;5092024;28;20460;-75
2022/09/27 03:55:07;;;;;;;1999.90;999.90;;;12.00;99.90;;;;;;5089401;28;20542;-71
2022/09/27 03:57:34;;;;;;;1999.90;999.90;;;11.90;99.90;;;;;;5092200;28;20448;-76
2022/09/27 04:00:01;;;;;;;1999.90;999.90;;;12.10;99.90;;;;;;5089972;28;20460;-73
2022/09/27 04:02:28;;;;;;;1999.90;999.90;;;12.00;99.90;;;;;;5091657;28;20480;-74
2022/09/27 04:04:55;;;;;;;1999.90;999.90;;;12.10;99.90;;;;;;5085280;28;21049;-75
2022/09/27 04:07:22;;;;;;;1999.90;999.90;;;12.10;99.90;;;;;;5091870;28;20866;-73
2022/09/27 04:09:49;;;;;;;1999.90;999.90;;;12.00;99.90;;;;;;5091747;28;20452;-74
2022/09/27 04:12:17;;;;;;;1999.90;999.90;;;12.00;99.90;;;;;;5092096;28;20517;-76
2022/09/27 04:14:43;;;;;;;1999.90;999.90;;;12.00;99.90;;;;;;5090425;28;20882;-74
2022/09/27 04:17:10;;;;;;;1999.90;999.90;;;11.90;99.90;;;;;;5090431;28;20510;-75
2022/09/27 04:19:36;;;;;;;1999.90;999.90;;;11.70;99.90;;;;;;5088340;28;20948;-75
2022/09/27 04:22:03;;;;;;;1999.90;999.90;;;11.70;99.90;;;;;;5091515;28;20484;-74
2022/09/27 04:24:31;;;;;;;1999.90;999.90;;;11.60;99.90;;;;;;5091011;28;20923;-75
2022/09/27 04:26:58;;;;;;;1999.90;999.90;;;11.70;99.90;;;;;;5089395;28;20611;-73
2022/09/27 04:29:27;;;;;;;1999.90;999.90;;;11.80;99.90;;;;;;5088812;28;20940;-73
2022/09/27 04:31:54;;;;;;;1999.90;999.90;;;11.70;99.90;;;;;;5088065;28;20956;-75
2022/09/27 04:36:25;;;;;;;1999.90;999.90;;;11.80;99.90;;;;;;5090333;28;20461;-74
2022/09/27 04:37:07;;;;;;;1999.90;999.90;;;11.90;99.90;;;;;;5088794;28;20467;-74
2022/09/27 04:39:35;;;;;;;1999.90;999.90;;;11.80;99.90;;;;;;5090676;28;20452;-76
2022/09/27 04:42:02;;;;;;;1999.90;999.90;;;11.90;99.90;;;;;;5088128;28;20222;-74
2022/09/27 04:44:30;;;;;;;1999.90;999.90;;;11.80;99.90;;;;;;5090294;28;20486;-75
2022/09/27 04:46:57;;;;;;;1999.90;999.90;;;11.80;99.90;;;;;;5091432;28;20968;-75
2022/09/27 04:49:24;;;;;;;1999.90;999.90;;;11.80;99.90;;;;;;5087700;28;20503;-73
2022/09/27 04:51:50;;;;;;;1999.90;999.90;;;11.90;99.90;;;;;;5089971;28;20478;-78
2022/09/27 04:54:17;;;;;;;1999.90;999.90;;;11.80;99.90;;;;;;5091106;28;20513;-71
2022/09/27 04:56:44;;;;;;;1999.90;999.90;;;11.70;99.90;;;;;;5084602;28;20529;-73
2022/09/27 04:59:10;;;;;;;1999.90;999.90;;;11.70;99.90;;;;;;5091561;28;20456;-73
2022/09/27 05:01:38;;;;;;;1999.90;999.90;;;11.70;99.90;;;;;;5089240;28;20483;-73
2022/09/27 05:04:05;;;;;;;1999.90;999.90;;;11.80;99.90;;;;;;5088192;28;20460;-76
2022/09/27 05:06:32;;;;;;;1999.90;999.90;;;11.80;99.90;;;;;;5090112;28;20476;-74
2022/09/27 05:08:59;;;;;;;1999.90;999.90;;;11.70;99.90;;;;;;5087459;28;20527;-74
2022/09/27 05:11:26;;;;;;;1999.90;999.90;;;11.70;99.90;;;;;;5087960;28;20494;-73
2022/09/27 05:13:53;;;;;;;1999.90;999.90;;;11.70;99.90;;;;;;5090240;28;20529;-73
2022/09/27 05:16:20;;;;;;;1999.90;999.90;;;11.70;99.90;;;;;;5087990;28;20484;-73
2022/09/27 05:18:47;;;;;;;1999.90;999.90;;;11.70;99.90;;;;;;5090436;28;20964;-74
2022/09/27 05:21:14;;;;;;;1999.90;999.90;;;11.70;99.90;;;;;;5087835;28;20510;-74
2022/09/27 05:23:41;;;;;;;1999.90;999.90;;;11.70;99.90;;;;;;5086421;28;20486;-73
2022/09/27 05:26:08;;;;;;;1999.90;999.90;;;11.70;99.90;;;;;;5102137;22;20995;-72
2022/09/27 05:28:35;;;;;;;1999.90;999.90;;;11.60;99.90;;;;;;5081738;28;20506;-70
2022/09/27 05:31:01;;;;;;;1999.90;999.90;;;11.60;99.90;;;;;;5089659;28;20448;-70
2022/09/27 05:33:28;;;;;;;1999.90;999.90;;;11.60;99.90;;;;;;5087258;28;20948;-69
2022/09/27 05:35:57;;;;;;;1999.90;999.90;;;11.70;99.90;;;;;;5088015;28;20975;-70
2022/09/27 05:38:25;;;;;;;1999.90;999.90;;;11.70;99.90;;;;;;5089558;28;20460;-70
2022/09/27 05:40:51;;;;;;;1999.90;999.90;;;11.70;99.90;;;;;;5086507;28;20459;-70
2022/09/27 05:43:18;;;;;;;1999.90;999.90;;;11.80;99.90;;;;;;5088439;28;20549;-70
2022/09/27 05:45:45;;;;;;;1999.90;999.90;;;11.80;99.90;;;;;;5088301;28;20472;-71
2022/09/27 05:48:13;;;;;;;1999.90;999.90;;;11.80;99.90;;;;;;5084821;28;20520;-70
2022/09/27 05:50:40;;;;;;;1999.90;999.90;;;12.00;99.90;;;;;;5084816;28;20525;-71
2022/09/27 05:53:09;;;;;;;1999.90;999.90;;;12.00;99.90;;;;;;5090471;28;20428;-71
2022/09/27 05:55:36;;;;;;;1999.90;999.90;;;12.10;99.90;;;;;;5087508;28;20506;-70
2022/09/27 05:58:05;;;;;;;1999.90;999.90;;;12.10;99.90;;;;;;5084371;28;20904;-69
2022/09/27 06:00:32;;;;;;;1999.90;999.90;;;12.00;99.90;;;;;;5091119;28;20433;-71
2022/09/27 06:03:00;;;;;;;1999.90;999.90;;;12.00;99.90;;;;;;5091773;28;20865;-70
2022/09/27 06:05:28;;;;;;;1999.90;999.90;;;12.10;99.90;;;;;;5091388;28;20851;-71
2022/09/27 06:07:59;;;;;;;1999.90;999.90;;;12.10;99.90;;;;;;5091682;28;20920;-71
2022/09/27 06:10:29;;;;;;;1999.90;999.90;;;12.10;99.90;;;;;;5091626;28;20451;-70
2022/09/27 06:13:01;;;;;;;1999.90;999.90;;;12.10;99.90;;;;;;5091660;28;20490;-71
2022/09/27 06:15:28;;;;;;;1999.90;999.90;;;12.20;99.90;;;;;;5086797;28;20971;-74
2022/09/27 06:17:54;;;;;;;1999.90;999.90;;;12.20;99.90;;;;;;5088557;28;20465;-73
2022/09/27 06:20:22;;;;;;;1999.90;999.90;;;12.10;99.90;;;;;;5088366;28;20479;-73
2022/09/27 06:22:49;;;;;;;1999.90;999.90;;;12.10;99.90;;;;;;5088657;28;20476;-72
2022/09/27 06:25:15;;;;;;;1999.90;999.90;;;11.90;99.90;;;;;;5087426;28;20448;-73
2022/09/27 06:27:43;;;;;;;1999.90;999.90;;;11.90;99.90;;;;;;5087472;28;21041;-73
2022/09/27 06:30:11;;;;;;;1999.90;999.90;;;11.80;99.90;;;;;;5086987;28;20494;-71
2022/09/27 06:32:38;;;;;;;1999.90;999.90;;;11.80;99.90;;;;;;5088463;28;20455;-68
2022/09/27 06:35:05;;;;;;;1999.90;999.90;;;11.80;99.90;;;;;;5088858;28;20543;-70
2022/09/27 06:37:33;;;;;;;1999.90;999.90;;;11.90;99.90;;;;;;5089379;28;20995;-71
2022/09/27 06:40:01;;;;;;;1999.90;999.90;;;11.90;99.90;;;;;;5087083;28;20533;-71
2022/09/27 06:42:28;;;;;;;1999.90;999.90;;;11.80;99.90;;;;;;5087640;28;20472;-70
2022/09/27 06:44:56;;;;;;;1999.90;999.90;;;11.80;99.90;;;;;;5088202;28;20458;-70
2022/09/27 06:47:24;;;;;;;1999.90;999.90;;;11.80;99.90;;;;;;5087025;28;20533;-71
2022/09/27 06:49:50;;;;;;;1999.90;999.90;;;11.80;99.90;;;;;;5087128;28;20467;-72
2022/09/27 06:52:17;;;;;;;1999.90;999.90;;;11.90;99.90;;;;;;5088613;28;20448;-71
2022/09/27 06:54:43;;;;;;;1999.90;999.90;;;11.90;99.90;;;;;;5088190;28;20456;-70
2022/09/27 07:00:22;;;;;;;1999.90;999.90;;;11.90;99.90;;;;;;5087991;28;20488;-70
2022/09/27 07:02:42;;;;;;;1999.90;999.90;;;11.90;99.90;;;;;;5090608;28;20475;-73
2022/09/27 07:05:09;;;;;;;1999.90;999.90;;;11.90;99.90;;;;;;5091150;28;20506;-73
2022/09/27 07:07:36;;;;;;;1999.90;999.90;;;11.80;99.90;;;;;;5092731;28;20482;-72
2022/09/27 07:10:02;;;;;;;1999.90;999.90;;;11.80;99.90;;;;;;5091574;28;20533;-71
2022/09/27 07:12:29;;;;;;;1999.90;999.90;;;11.80;99.90;;;;;;5089957;28;21024;-72
2022/09/27 07:14:57;;;;;;;1999.90;999.90;;;11.70;99.90;;;;;;5089657;28;20521;-71
2022/09/27 07:17:24;;;;;;;1999.90;999.90;;;11.70;99.90;;;;;;5092196;28;21156;-70
2022/09/27 07:19:50;;;;;;;1999.90;999.90;;;11.70;99.90;;;;;;5091860;28;20456;-71
2022/09/27 07:22:17;;;;;;;1999.90;999.90;;;11.70;99.90;;;;;;5087618;28;20577;-71
2022/09/27 07:24:44;;;;;;;1999.90;999.90;;;11.60;99.90;;;;;;5090067;28;20932;-71
2022/09/27 07:27:10;;;;;;;1999.90;999.90;;;11.50;99.90;;;;;;5088859;28;20489;-72
2022/09/27 07:29:37;;;;;;;1999.90;999.90;;;11.60;99.90;;;;;;5092960;28;20437;-72
2022/09/27 07:32:05;;;;;;;1999.90;999.90;;;11.60;99.90;;;;;;5089829;28;20456;-71
2022/09/27 07:34:33;;;;;;;1999.90;999.90;;;11.60;99.90;;;;;;5087900;28;20460;-71
2022/09/27 07:37:00;;;;;;;1999.90;999.90;;;11.50;99.90;;;;;;5088243;28;20476;-72
2022/09/27 07:39:27;;;;;;;1999.90;999.90;;;11.60;99.90;;;;;;5090993;28;20460;-70
2022/09/27 07:41:53;;;;;;;1999.90;999.90;;;11.60;99.90;;;;;;5092765;28;20433;-70
2022/09/27 07:44:20;;;;;;;1999.90;999.90;;;11.70;99.90;;;;;;5093026;28;20436;-69
2022/09/27 07:46:47;;;;;;;1999.90;999.90;;;11.70;99.90;;;;;;5092978;28;20509;-69
2022/09/27 07:49:15;;;;;;;1999.90;999.90;;;11.80;99.90;;;;;;5091419;28;20506;-71
2022/09/27 07:51:41;;;;;;;1999.90;999.90;;;11.70;99.90;;;;;;5092541;28;20433;-69
2022/09/27 07:54:08;;;;;;;1999.90;999.90;;;11.70;99.90;;;;;;5092263;28;20481;-70
2022/09/27 07:56:34;;;;;;;1999.90;999.90;;;11.70;99.90;;;;;;5096019;28;20460;-70
2022/09/27 07:59:02;;;;;;;1999.90;999.90;;;11.80;99.90;;;;;;5091906;28;20495;-70
2022/09/27 08:01:28;;;;;;;1999.90;999.90;;;11.80;99.90;;;;;;5092544;28;20962;-70
2022/09/27 08:03:57;;;;;;;1999.90;999.90;;;11.80;99.90;;;;;;5087745;28;20472;-70
2022/09/27 08:06:25;;;;;;;1999.90;999.90;;;11.90;99.90;;;;;;5092379;28;20460;-70
2022/09/27 08:08:52;;;;;;;1999.90;999.90;;;11.90;99.90;;;;;;5092751;28;20436;-72
2022/09/27 08:11:19;;;;;;;1999.90;999.90;;;11.90;99.90;;;;;;5090386;28;20460;-71
2022/09/27 08:13:46;;;;;;;1999.90;999.90;;;11.90;99.90;;;;;;5092373;28;20457;-72
2022/09/27 08:16:13;;;;;;;1999.90;999.90;;;12.00;99.90;;;;;;5092145;28;20460;-70
2022/09/27 08:18:40;;;;;;;1999.90;999.90;;;12.10;99.90;;;;;;5092159;28;20451;-69
2022/09/27 08:21:07;;;;;;;1999.90;999.90;;;12.20;99.90;;;;;;5092720;28;20490;-70
2022/09/27 08:23:35;;;;;;;1999.90;999.90;;;12.20;99.90;;;;;;5091540;28;20482;-70
2022/09/27 08:26:02;;;;;;;1999.90;999.90;;;12.40;99.90;;;;;;5056033;28;1025113;-72
2022/09/27 08:28:29;;;;;;;1999.90;999.90;;;12.60;99.90;;;;;;5093297;28;20444;-70
2022/09/27 08:30:58;;;;;;;1999.90;999.90;;;12.70;99.90;;;;;;5093400;28;20439;-70
2022/09/27 08:33:25;;;;;;;1999.90;999.90;;;12.70;99.90;;;;;;5088370;28;20444;-70
2022/09/27 08:35:52;;;;;;;1999.90;999.90;;;12.70;99.90;;;;;;5087106;28;20483;-70
2022/09/27 08:38:19;;;;;;;1999.90;999.90;;;12.50;99.90;;;;;;5087858;28;20465;-69
2022/09/27 08:40:53;;;;;;;1999.90;999.90;;;12.60;99.90;;;;;;5089456;28;20453;-69
2022/09/27 08:43:28;;;;;;;1999.90;999.90;;;12.40;99.90;;;;;;5086645;28;20476;-70
2022/09/27 08:46:20;;;;;;;1999.90;999.90;;;12.30;99.90;;;;;;5087189;28;20472;-72
2022/09/27 08:48:51;;;;;;;1999.90;999.90;;;12.30;99.90;;;;;;5088048;28;20509;-70
2022/09/27 08:51:21;;;;;;;1999.90;999.90;;;12.40;99.90;;;;;;5089287;28;20864;-71
2022/09/27 08:53:54;;;;;;;1999.90;999.90;;;12.50;99.90;;;;;;5084833;28;20445;-70
2022/09/27 08:56:23;;;;;;;1999.90;999.90;;;12.70;99.90;;;;;;5090103;28;20533;-72
2022/09/27 08:58:55;;;;;;;1999.90;999.90;;;12.90;99.90;;;;;;5087481;28;20456;-70
2022/09/27 09:01:22;;;;;;;1999.90;999.90;;;13.10;99.90;;;;;;5092069;28;20928;-70
2022/09/27 09:03:53;;;;;;;1999.90;999.90;;;12.70;99.90;;;;;;5088899;28;20876;-71
2022/09/27 09:06:24;;;;;;;1999.90;999.90;;;12.70;99.90;;;;;;5086666;28;20553;-70
2022/09/27 09:09:04;;;;;;;1999.90;999.90;;;12.60;99.90;;;;;;5088000;28;20909;-70
2022/09/27 09:14:48;;;;;;;1999.90;999.90;;;12.40;99.90;;;;;;5082780;28;20522;-71
2022/09/27 09:17:26;;;;;;;1999.90;999.90;;;12.60;99.90;;;;;;5086303;28;20533;-70
2022/09/27 09:20:10;;;;;;;1999.90;999.90;;;12.60;99.90;;;;;;5085779;28;20495;-71
2022/09/27 09:23:05;;;;;;;1999.90;999.90;;;12.60;99.90;;;;;;5091425;28;20432;-71
2022/09/27 09:25:39;;;;;;;1999.90;999.90;;;12.70;99.90;;;;;;5091515;28;20445;-71
2022/09/27 09:28:23;;;;;;;1999.90;999.90;;;12.60;99.90;;;;;;5092093;28;20435;-71
2022/09/27 09:30:58;;;;;;;1999.90;999.90;;;12.70;99.90;;;;;;5091421;28;20448;-71
2022/09/27 09:33:29;;;;;;;1999.90;999.90;;;12.80;99.90;;;;;;5092056;28;20985;-71
2022/09/27 09:36:02;;;;;;;1999.90;999.90;;;13.00;99.90;;;;;;5092035;28;20492;-70
2022/09/27 09:38:36;;;;;;;1999.90;999.90;;;12.90;99.90;;;;;;5092255;28;20440;-70
2022/09/27 09:41:08;;;;;;;1999.90;999.90;;;12.90;99.90;;;;;;5092053;28;20884;-71
2022/09/27 09:43:42;;;;;;;1999.90;999.90;;;13.00;99.90;;;;;;5089551;28;20514;-71
2022/09/27 09:46:16;;;;;;;1999.90;999.90;;;13.00;99.90;;;;;;5091470;28;20456;-71
2022/09/27 09:48:48;;;;;;;1999.90;999.90;;;13.20;99.90;;;;;;5092170;28;20429;-71
2022/09/27 09:51:21;;;;;;;1999.90;999.90;;;13.40;99.90;;;;;;5083012;28;20469;-69
2022/09/27 09:53:54;;;;;;;1999.90;999.90;;;13.60;99.90;;;;;;5086811;28;20491;-71
2022/09/27 09:56:24;;;;;;;1999.90;999.90;;;13.70;99.90;;;;;;5087835;28;20468;-71
2022/09/27 09:58:55;;;;;;;1999.90;999.90;;;13.80;99.90;;;;;;5088879;28;20453;-71
2022/09/27 10:01:27;;;;;;;1999.90;999.90;;;14.00;99.90;;;;;;5089076;28;20460;-71
2022/09/27 10:03:55;;;;;;;1999.90;999.90;;;14.20;99.90;;;;;;5087146;28;20461;-71
2022/09/27 10:06:24;;;;;;;1999.90;999.90;;;14.50;99.90;;;;;;5083067;28;20476;-69
2022/09/27 10:08:53;;;;;;;1999.90;999.90;;;14.50;99.90;;;;;;5085189;28;20453;-71
2022/09/27 10:11:23;;;;;;;1999.90;999.90;;;14.40;99.90;;;;;;5087112;28;20526;-71
2022/09/27 10:13:51;;;;;;;1999.90;999.90;;;14.40;99.90;;;;;;5087831;28;20853;-71
2022/09/27 10:16:20;;;;;;;1999.90;999.90;;;14.40;99.90;;;;;;5089097;28;20553;-71
2022/09/27 10:18:48;;;;;;;1999.90;999.90;;;14.20;99.90;;;;;;5085723;28;20452;-71
2022/09/27 10:21:20;;;;;;;1999.90;999.90;;;14.50;99.90;;;;;;5085043;28;20456;-71
2022/09/27 10:24:08;;;;;;;1999.90;999.90;;;14.80;99.90;;;;;;5088118;28;20464;-70
2022/09/27 10:26:36;;;;;;;1999.90;999.90;;;14.80;99.90;;;;;;5081257;28;20496;-71
2022/09/27 10:29:23;;;;;;;1999.90;999.90;;;14.90;99.90;;;;;;5074363;28;20460;-71
2022/09/27 10:31:52;;;;;;;1999.90;999.90;;;15.10;99.90;;;;;;5077958;28;20456;-71
2022/09/27 10:34:25;;;;;;;1999.90;999.90;;;15.30;99.90;;;;;;5093758;28;20506;-70
2022/09/27 10:37:17;;;;;;;1999.90;999.90;;;15.70;99.90;;;;;;5095655;28;20483;-71
2022/09/27 10:39:45;;;;;;;1999.90;999.90;;;15.70;99.90;;;;;;5092076;28;20544;-71
2022/09/27 10:42:30;;;;;;;1999.90;999.90;;;15.40;99.90;;;;;;5095200;28;20428;-71
2022/09/27 10:44:57;;;;;;;1999.90;999.90;;;15.00;99.90;;;;;;5093966;28;20460;-71
2022/09/27 10:47:26;;;;;;;1999.90;999.90;;;14.60;99.90;;;;;;5093892;28;20468;-71
2022/09/27 10:50:03;;;;;;;1999.90;999.90;;;14.50;99.90;;;;;;5094838;28;20424;-72
2022/09/27 10:52:30;;;;;;;1999.90;999.90;;;14.40;99.90;;;;;;5095318;28;20489;-71
2022/09/27 10:54:59;;;;;;;1999.90;999.90;;;14.40;99.90;;;;;;5094672;28;20432;-71
2022/09/27 10:57:28;;;;;;;1999.90;999.90;;;14.40;99.90;;;;;;5093362;28;20489;-71
2022/09/27 10:59:58;;;;;;;1999.90;999.90;;;14.50;99.90;;;;;;5094650;28;20432;-71
2022/09/27 11:02:29;;;;;;;1999.90;999.90;;;14.40;99.90;;;;;;5094785;28;20437;-71
2022/09/27 11:05:12;;;;;;;1999.90;999.90;;;14.40;99.90;;;;;;5094767;28;20482;-71
2022/09/27 11:07:48;;;;;;;1999.90;999.90;;;14.30;99.90;;;;;;5094124;28;20483;-71
2022/09/27 11:10:24;;;;;;;1999.90;999.90;;;14.30;99.90;;;;;;5094473;28;20504;-71
2022/09/27 11:13:13;;;;;;;1999.90;999.90;;;14.40;99.90;;;;;;5095161;28;20455;-71
2022/09/27 11:15:57;;;;;;;1999.90;999.90;;;14.60;99.90;;;;;;5094282;28;20440;-71
2022/09/27 11:18:31;;;;;;;1999.90;999.90;;;14.70;99.90;;;;;;5093810;28;20997;-69
2022/09/27 11:21:08;;;;;;;1999.90;999.90;;;14.60;99.90;;;;;;5093161;28;20505;-71
2022/09/27 11:23:57;;;;;;;1999.90;999.90;;;14.50;99.90;;;;;;5091406;28;20530;-71
2022/09/27 11:26:33;;;;;;;1999.90;999.90;;;14.60;99.90;;;;;;5120531;22;20451;-74
2022/09/27 11:29:14;;;;;;;1999.90;999.90;;;15.30;99.90;;;;;;5091018;28;20456;-73
2022/09/27 11:31:52;;;;;;;1999.90;999.90;;;15.20;99.90;;;;;;5091395;28;20456;-74
2022/09/27 11:34:42;;;;;;;1999.90;999.90;;;15.40;99.90;;;;;;5091268;28;20861;-73
2022/09/27 11:37:22;;;;;;;1999.90;999.90;;;15.40;99.90;;;;;;5091301;28;20850;-72
2022/09/27 11:40:02;;;;;;;1999.90;999.90;;;15.20;99.90;;;;;;5092678;28;20940;-75
2022/09/27 11:42:52;;;;;;;1999.90;999.90;;;15.00;99.90;;;;;;5093690;28;20463;-75
2022/09/27 11:45:31;;;;;;;1999.90;999.90;;;15.00;99.90;;;;;;5088584;28;21021;-75
2022/09/27 11:48:11;;;;;;;1999.90;999.90;;;15.20;99.90;;;;;;5085365;28;20509;-75
2022/09/27 11:51:01;;;;;;;1999.90;999.90;;;15.30;99.90;;;;;;5088337;28;20935;-70
2022/09/27 11:53:45;;;;;;;1999.90;999.90;;;15.40;99.90;;;;;;5089444;28;20938;-72
2022/09/27 11:56:22;;;;;;;1999.90;999.90;;;15.40;99.90;;;;;;5091855;28;20456;-70
2022/09/27 11:59:04;;;;;;;1999.90;999.90;;;15.50;99.90;;;;;;5092384;28;20456;-73
2022/09/27 12:01:40;;;;;;;1999.90;999.90;;;15.60;99.90;;;;;;5090949;28;20494;-75
2022/09/27 12:04:37;;;;;;;1999.90;999.90;;;15.50;99.90;;;;;;5090849;28;20529;-73
2022/09/27 12:07:11;;;;;;;1999.90;999.90;;;15.60;99.90;;;;;;5059048;28;21031;-74
2022/09/27 12:09:43;;;;;;;1999.90;999.90;;;15.60;99.90;;;;;;5090972;28;20461;-74
2022/09/27 12:12:14;;;;;;;1999.90;999.90;;;15.20;99.90;;;;;;5091756;28;20948;-74
2022/09/27 12:14:43;;;;;;;1999.90;999.90;;;15.10;99.90;;;;;;5091288;28;21270;-75
2022/09/27 12:17:16;;;;;;;1999.90;999.90;;;14.80;99.90;;;;;;5091194;28;20476;-75
2022/09/27 12:19:49;;;;;;;1999.90;999.90;;;14.70;99.90;;;;;;5090630;28;20448;-75
2022/09/27 12:22:23;;;;;;;1999.90;999.90;;;14.50;99.90;;;;;;5090596;28;20470;-75